Tiel, Netherlands
Current Conditions -  °F | °C
As of 9:25 PM on Friday 21 Nov 2014 (Local Time) from EHVK Reporting Station
Overcast Overcast  
Wind Chill: 38°   Ceiling: 13000
Heat Index: 43°   Visibility: 6mi
Dew Point: 39°   Wind: 8mph
Humidity: 87%   Direction: 90°E
Pressure: 30.09"   Gusts: NA
Location:  51.89°N, 5.43°E
Report Text: EHVK 212025Z AUTO 09007KT 9999 OVC130 06/04 Q1019 BLU
Loading
Personal Weather Stations






























Interactive Weather Map New forecast layout! Learn more

10-Day Weather Forecast

Advertisements
Track Severe Weather on mobile